Time;durP1;ratioP1;P1;durP2;ratioP2;P2;SDS_P1;SDS_P2;PMS_P1;PMS_P2;Temp;Humidity;BMP_temperature;BMP_pressure;BME280_temperature;BME280_humidity;BME280_pressure;Samples;Min_cycle;Max_cycle;Signal;HPM_P1;HPM_P2
2022/10/03 00:00:44;;;;;;;;;;;;;;;;;;5072004;28;19912;-63
2022/10/03 00:03:09;;;;;;;;;;;;;;;;;;5071307;28;19922;-63
2022/10/03 00:05:35;;;;;;;;;;;;;;;;;;5067644;28;19936;-62
2022/10/03 00:08:00;;;;;;;;;;;;;;;;;;5036412;28;19912;-63
2022/10/03 00:10:25;;;;;;;;;;;;;;;;;;5034185;28;19943;-63
2022/10/03 00:12:50;;;;;;;;;;;;;;;;;;5052452;28;20046;-63
2022/10/03 00:15:15;;;;;;;;;;;;;;;;;;5052408;28;19916;-63
2022/10/03 00:17:40;;;;;;;;;;;;;;;;;;5069522;28;19935;-63
2022/10/03 00:20:05;;;;;;;;;;;;;;;;;;5050578;28;19921;-63
2022/10/03 00:22:31;;;;;;;;;;;;;;;;;;5078998;28;20054;-63
2022/10/03 00:24:56;;;;;;;;;;;;;;;;;;5073475;28;19924;-63
2022/10/03 00:27:21;;;;;;;;;;;;;;;;;;5068099;28;19939;-63
2022/10/03 00:29:46;;;;;;;;;;;;;;;;;;5091383;28;20265;-63
2022/10/03 00:32:11;;;;;;;;;;;;;;;;;;5081500;28;20383;-64
2022/10/03 00:34:36;;;;;;;;;;;;;;;;;;5085274;28;19919;-63
2022/10/03 00:37:02;;;;;;;;;;;;;;;;;;5083185;28;19912;-63
2022/10/03 00:39:27;;;;;;;;;;;;;;;;;;5085542;28;19998;-63
2022/10/03 00:41:52;;;;;;;;;;;;;;;;;;5086544;28;19916;-63
2022/10/03 00:44:17;;;;;;;;;;;;;;;;;;5054342;28;19916;-63
2022/10/03 00:46:43;;;;;;;;;;;;;;;;;;5075894;28;19916;-63
2022/10/03 00:49:08;;;;;;;;;;;;;;;;;;5082359;28;20025;-63
2022/10/03 00:51:33;;;;;;;;;;;;;;;;;;5088545;28;19947;-63
2022/10/03 00:53:58;;;;;;;;;;;;;;;;;;5090984;28;20282;-63
2022/10/03 00:56:23;;;;;;;;;;;;;;;;;;5073155;28;19909;-63
2022/10/03 00:58:48;;;;;;;;;;;;;;;;;;5090142;28;19997;-63
2022/10/03 01:01:14;;;;;;;;;;;;;;;;;;5089651;28;19928;-63
2022/10/03 01:03:39;;;;;;;;;;;;;;;;;;5065016;28;19912;-63
2022/10/03 01:06:04;;;;;;;;;;;;;;;;;;5072417;28;20425;-63
2022/10/03 01:08:30;;;;;;;;;;;;;;;;;;5091226;28;19908;-64
2022/10/03 01:10:55;;;;;;;;;;;;;;;;;;5086271;28;19913;-63
2022/10/03 01:13:20;;;;;;;;;;;;;;;;;;5081333;28;19923;-63
2022/10/03 01:15:46;;;;;;;;;;;;;;;;;;5076933;28;19948;-64
2022/10/03 01:18:11;;;;;;;;;;;;;;;;;;5087645;28;19920;-63
2022/10/03 01:20:36;;;;;;;;;;;;;;;;;;5082955;28;19924;-63
2022/10/03 01:23:01;;;;;;;;;;;;;;;;;;5094801;28;20391;-63
2022/10/03 01:25:26;;;;;;;;;;;;;;;;;;5072234;28;19920;-63
2022/10/03 01:30:35;;;;;;;;;;;;;;;;;;5075808;28;19970;-63
2022/10/03 01:33:01;;;;;;;;;;;;;;;;;;5078563;28;20331;-63
2022/10/03 01:35:27;;;;;;;;;;;;;;;;;;5083804;28;19948;-62
2022/10/03 01:37:52;;;;;;;;;;;;;;;;;;5085330;28;19952;-63
2022/10/03 01:40:17;;;;;;;;;;;;;;;;;;5089539;28;19912;-63
2022/10/03 01:42:42;;;;;;;;;;;;;;;;;;5076951;28;20293;-63
2022/10/03 01:45:10;;;;;;;;;;;;;;;;;;5090001;28;19932;-63
2022/10/03 01:47:36;;;;;;;;;;;;;;;;;;5074566;28;19983;-63
2022/10/03 01:50:01;;;;;;;;;;;;;;;;;;5081694;28;20001;-63
2022/10/03 01:52:26;;;;;;;;;;;;;;;;;;5078040;28;19912;-63
2022/10/03 01:54:51;;;;;;;;;;;;;;;;;;5087762;28;19912;-63
2022/10/03 01:57:16;;;;;;;;;;;;;;;;;;5076060;28;19912;-63
2022/10/03 01:59:42;;;;;;;;;;;;;;;;;;5075904;28;19955;-62
2022/10/03 02:02:07;;;;;;;;;;;;;;;;;;5076149;28;19939;-63
2022/10/03 02:04:32;;;;;;;;;;;;;;;;;;5085537;28;19916;-63
2022/10/03 02:06:57;;;;;;;;;;;;;;;;;;5070189;28;19962;-63
2022/10/03 02:09:22;;;;;;;;;;;;;;;;;;5093973;28;20364;-63
2022/10/03 02:11:48;;;;;;;;;;;;;;;;;;5078137;28;19958;-63
2022/10/03 02:14:13;;;;;;;;;;;;;;;;;;5059519;28;19917;-62
2022/10/03 02:16:41;;;;;;;;;;;;;;;;;;5075978;28;20287;-62
2022/10/03 02:19:06;;;;;;;;;;;;;;;;;;5074683;28;19923;-63
2022/10/03 02:21:31;;;;;;;;;;;;;;;;;;5066912;28;19912;-63
2022/10/03 02:23:56;;;;;;;;;;;;;;;;;;5051206;28;19917;-63
2022/10/03 02:26:21;;;;;;;;;;;;;;;;;;5052453;28;19920;-63
2022/10/03 02:28:47;;;;;;;;;;;;;;;;;;5056660;28;19920;-64
2022/10/03 02:31:12;;;;;;;;;;;;;;;;;;5055850;28;19931;-63
2022/10/03 02:33:37;;;;;;;;;;;;;;;;;;5054367;28;19916;-63
2022/10/03 02:36:03;;;;;;;;;;;;;;;;;;5065041;28;19920;-63
2022/10/03 02:38:28;;;;;;;;;;;;;;;;;;5055009;28;19928;-63
2022/10/03 02:40:54;;;;;;;;;;;;;;;;;;5069068;28;20327;-64
2022/10/03 02:43:21;;;;;;;;;;;;;;;;;;5045130;28;19916;-63
2022/10/03 02:45:46;;;;;;;;;;;;;;;;;;5054607;28;19956;-63
2022/10/03 02:48:11;;;;;;;;;;;;;;;;;;5053222;28;20224;-62
2022/10/03 02:50:36;;;;;;;;;;;;;;;;;;5053467;28;20370;-62
2022/10/03 02:53:01;;;;;;;;;;;;;;;;;;5058131;28;19986;-63
2022/10/03 02:55:27;;;;;;;;;;;;;;;;;;5063168;28;19935;-62
2022/10/03 02:57:52;;;;;;;;;;;;;;;;;;5065810;28;19935;-62
2022/10/03 03:00:17;;;;;;;;;;;;;;;;;;5057808;28;19956;-63
2022/10/03 03:02:42;;;;;;;;;;;;;;;;;;5065485;28;19916;-63
2022/10/03 03:05:07;;;;;;;;;;;;;;;;;;5070522;28;20369;-62
2022/10/03 03:07:35;;;;;;;;;;;;;;;;;;5074068;28;20376;-62
2022/10/03 03:10:01;;;;;;;;;;;;;;;;;;5069425;28;19964;-63
2022/10/03 03:12:26;;;;;;;;;;;;;;;;;;5073664;28;20022;-63
2022/10/03 03:14:51;;;;;;;;;;;;;;;;;;5062714;28;20403;-63
2022/10/03 03:17:16;;;;;;;;;;;;;;;;;;5073815;28;19909;-63
2022/10/03 03:19:41;;;;;;;;;;;;;;;;;;5065938;28;19955;-64
2022/10/03 03:22:08;;;;;;;;;;;;;;;;;;5073395;28;19908;-63
2022/10/03 03:24:34;;;;;;;;;;;;;;;;;;5063600;28;19920;-63
2022/10/03 03:26:59;;;;;;;;;;;;;;;;;;5080223;28;19923;-63
2022/10/03 03:29:24;;;;;;;;;;;;;;;;;;5069904;28;19938;-63
2022/10/03 03:31:49;;;;;;;;;;;;;;;;;;5079451;28;19966;-63
2022/10/03 03:34:14;;;;;;;;;;;;;;;;;;5073055;28;19912;-61
2022/10/03 03:36:40;;;;;;;;;;;;;;;;;;5071603;28;19999;-61
2022/10/03 03:39:05;;;;;;;;;;;;;;;;;;5072828;28;19912;-63
2022/10/03 03:41:30;;;;;;;;;;;;;;;;;;5085478;28;19913;-61
2022/10/03 03:43:55;;;;;;;;;;;;;;;;;;5072756;28;19912;-63
2022/10/03 03:46:21;;;;;;;;;;;;;;;;;;5072705;28;19999;-63
2022/10/03 03:48:46;;;;;;;;;;;;;;;;;;5075272;28;19951;-62
2022/10/03 03:51:12;;;;;;;;;;;;;;;;;;5074717;28;19958;-62
2022/10/03 03:53:37;;;;;;;;;;;;;;;;;;5083286;28;20299;-62
2022/10/03 03:56:02;;;;;;;;;;;;;;;;;;5069481;28;20481;-62
2022/10/03 03:58:27;;;;;;;;;;;;;;;;;;5077206;28;19961;-62
2022/10/03 04:00:52;;;;;;;;;;;;;;;;;;5073141;28;20407;-63
2022/10/03 04:03:17;;;;;;;;;;;;;;;;;;5089679;28;19912;-62
2022/10/03 04:05:43;;;;;;;;;;;;;;;;;;5088039;28;19919;-62
2022/10/03 04:08:09;;;;;;;;;;;;;;;;;;5074946;28;20034;-62
2022/10/03 04:10:37;;;;;;;;;;;;;;;;;;5086875;28;19912;-62
2022/10/03 04:13:02;;;;;;;;;;;;;;;;;;5090734;28;19912;-62
2022/10/03 04:15:27;;;;;;;;;;;;;;;;;;5074907;28;19918;-62
2022/10/03 04:20:36;;;;;;;;;;;;;;;;;;5086223;28;20027;-63
2022/10/03 04:23:01;;;;;;;;;;;;;;;;;;5083373;28;20004;-63
2022/10/03 04:25:26;;;;;;;;;;;;;;;;;;5072788;28;19916;-63
2022/10/03 04:27:51;;;;;;;;;;;;;;;;;;5082445;28;19912;-63
2022/10/03 04:30:16;;;;;;;;;;;;;;;;;;5073712;28;19912;-63
2022/10/03 04:32:42;;;;;;;;;;;;;;;;;;5086256;28;19912;-63
2022/10/03 04:35:07;;;;;;;;;;;;;;;;;;5069945;28;19926;-63
2022/10/03 04:37:32;;;;;;;;;;;;;;;;;;5070218;28;20388;-62
2022/10/03 04:39:57;;;;;;;;;;;;;;;;;;5072032;28;20383;-61
2022/10/03 04:42:25;;;;;;;;;;;;;;;;;;5078825;28;19916;-63
2022/10/03 04:44:51;;;;;;;;;;;;;;;;;;5072314;28;20369;-63
2022/10/03 04:47:16;;;;;;;;;;;;;;;;;;5079175;28;19966;-63
2022/10/03 04:49:41;;;;;;;;;;;;;;;;;;5070249;28;19961;-63
2022/10/03 04:52:06;;;;;;;;;;;;;;;;;;5081782;28;19912;-63
2022/10/03 04:54:31;;;;;;;;;;;;;;;;;;5077059;28;19934;-62
2022/10/03 04:56:56;;;;;;;;;;;;;;;;;;5073016;28;19934;-63
2022/10/03 04:59:22;;;;;;;;;;;;;;;;;;5090177;28;20030;-63
2022/10/03 05:01:47;;;;;;;;;;;;;;;;;;5088544;28;20011;-63
2022/10/03 05:04:12;;;;;;;;;;;;;;;;;;5071959;28;19916;-63
2022/10/03 05:06:37;;;;;;;;;;;;;;;;;;5058390;28;19919;-63
2022/10/03 05:09:03;;;;;;;;;;;;;;;;;;5072358;28;20390;-63
2022/10/03 05:11:28;;;;;;;;;;;;;;;;;;5080188;28;19916;-63
2022/10/03 05:13:54;;;;;;;;;;;;;;;;;;5069448;28;20300;-62
2022/10/03 05:16:20;;;;;;;;;;;;;;;;;;5060943;28;20429;-63
2022/10/03 05:18:45;;;;;;;;;;;;;;;;;;5076609;28;19912;-63
2022/10/03 05:21:11;;;;;;;;;;;;;;;;;;5077087;28;19916;-63
2022/10/03 05:23:36;;;;;;;;;;;;;;;;;;5087857;28;19912;-63
2022/10/03 05:26:01;;;;;;;;;;;;;;;;;;5079183;28;19924;-63
2022/10/03 05:28:26;;;;;;;;;;;;;;;;;;5066058;28;19930;-64
2022/10/03 05:30:53;;;;;;;;;;;;;;;;;;5071644;28;19952;-64
2022/10/03 05:33:18;;;;;;;;;;;;;;;;;;5072693;28;19913;-63
2022/10/03 05:35:43;;;;;;;;;;;;;;;;;;5076841;28;19913;-62
2022/10/03 05:38:08;;;;;;;;;;;;;;;;;;5091214;28;19912;-63
2022/10/03 05:40:33;;;;;;;;;;;;;;;;;;5064611;28;19958;-63
2022/10/03 05:42:58;;;;;;;;;;;;;;;;;;5082105;28;20387;-62
2022/10/03 05:45:23;;;;;;;;;;;;;;;;;;5092000;28;20276;-63
2022/10/03 05:47:48;;;;;;;;;;;;;;;;;;5088934;28;20371;-62
2022/10/03 05:50:14;;;;;;;;;;;;;;;;;;5076536;28;20374;-63
2022/10/03 05:52:39;;;;;;;;;;;;;;;;;;5068484;28;19916;-62
2022/10/03 05:55:04;;;;;;;;;;;;;;;;;;5091894;28;19912;-62
2022/10/03 05:57:29;;;;;;;;;;;;;;;;;;5088579;28;19954;-63
2022/10/03 05:59:54;;;;;;;;;;;;;;;;;;5083954;28;20007;-63
2022/10/03 06:02:19;;;;;;;;;;;;;;;;;;5072368;28;20014;-63
2022/10/03 06:04:45;;;;;;;;;;;;;;;;;;5088803;28;19928;-63
2022/10/03 06:07:11;;;;;;;;;;;;;;;;;;5060041;28;19920;-63
2022/10/03 06:09:36;;;;;;;;;;;;;;;;;;5068299;28;20352;-64
2022/10/03 06:12:01;;;;;;;;;;;;;;;;;;5074773;28;19908;-63
2022/10/03 06:14:26;;;;;;;;;;;;;;;;;;5082689;28;19916;-63
2022/10/03 06:16:51;;;;;;;;;;;;;;;;;;5095631;28;19940;-63
2022/10/03 06:19:17;;;;;;;;;;;;;;;;;;5083051;28;20281;-63
2022/10/03 06:21:42;;;;;;;;;;;;;;;;;;5076806;28;20252;-63
2022/10/03 06:24:07;;;;;;;;;;;;;;;;;;5092597;28;19974;-63
2022/10/03 06:26:34;;;;;;;;;;;;;;;;;;5092152;28;19919;-63
2022/10/03 06:29:00;;;;;;;;;;;;;;;;;;5079352;28;19912;-63
2022/10/03 06:31:25;;;;;;;;;;;;;;;;;;5070492;28;20467;-63
2022/10/03 06:33:50;;;;;;;;;;;;;;;;;;5056682;28;19999;-63
2022/10/03 06:36:15;;;;;;;;;;;;;;;;;;5083072;28;19908;-63
2022/10/03 06:38:41;;;;;;;;;;;;;;;;;;5088070;28;19927;-62
2022/10/03 06:41:06;;;;;;;;;;;;;;;;;;5074568;28;19915;-63
2022/10/03 06:43:31;;;;;;;;;;;;;;;;;;5056369;28;19908;-63
2022/10/03 06:45:57;;;;;;;;;;;;;;;;;;5082959;28;19928;-63
2022/10/03 06:48:22;;;;;;;;;;;;;;;;;;5076115;28;19924;-63
2022/10/03 06:50:47;;;;;;;;;;;;;;;;;;5071159;28;19946;-63
2022/10/03 06:53:12;;;;;;;;;;;;;;;;;;5072651;28;19912;-63
2022/10/03 06:55:37;;;;;;;;;;;;;;;;;;5080570;28;19920;-63
2022/10/03 06:58:03;;;;;;;;;;;;;;;;;;5061971;28;20365;-63
2022/10/03 07:00:28;;;;;;;;;;;;;;;;;;5090984;28;19977;-62
2022/10/03 07:02:53;;;;;;;;;;;;;;;;;;5089678;28;19957;-63
2022/10/03 07:05:18;;;;;;;;;;;;;;;;;;5084868;28;19951;-62
2022/10/03 07:07:44;;;;;;;;;;;;;;;;;;5083690;28;19954;-62
2022/10/03 07:10:09;;;;;;;;;;;;;;;;;;5065787;28;19913;-63
2022/10/03 07:12:35;;;;;;;;;;;;;;;;;;5080526;28;20294;-62
2022/10/03 07:15:00;;;;;;;;;;;;;;;;;;5082038;28;19941;-63
2022/10/03 07:17:27;;;;;;;;;;;;;;;;;;5080632;28;20314;-64
2022/10/03 07:19:52;;;;;;;;;;;;;;;;;;5075879;28;19938;-63
2022/10/03 07:22:18;;;;;;;;;;;;;;;;;;5081913;28;19912;-63
2022/10/03 07:24:43;;;;;;;;;;;;;;;;;;5067265;28;19927;-63
2022/10/03 07:27:08;;;;;;;;;;;;;;;;;;5075125;28;19912;-63
2022/10/03 07:29:35;;;;;;;;;;;;;;;;;;5066233;28;22275;-63
2022/10/03 07:32:00;;;;;;;;;;;;;;;;;;5090383;28;19961;-63
2022/10/03 07:34:26;;;;;;;;;;;;;;;;;;5075402;28;19912;-63
2022/10/03 07:39:35;;;;;;;;;;;;;;;;;;5080849;28;19958;-64
2022/10/03 07:42:00;;;;;;;;;;;;;;;;;;5073057;28;19912;-63
2022/10/03 07:44:28;;;;;;;;;;;;;;;;;;5079095;28;19916;-64
2022/10/03 07:46:53;;;;;;;;;;;;;;;;;;5076074;28;19916;-64
2022/10/03 07:49:18;;;;;;;;;;;;;;;;;;5062629;28;19920;-63
2022/10/03 07:51:44;;;;;;;;;;;;;;;;;;5078933;28;19935;-63
2022/10/03 07:54:09;;;;;;;;;;;;;;;;;;5085526;28;19912;-63
2022/10/03 07:56:34;;;;;;;;;;;;;;;;;;5071652;28;20045;-62
2022/10/03 07:59:00;;;;;;;;;;;;;;;;;;5087711;28;19973;-64
2022/10/03 08:01:25;;;;;;;;;;;;;;;;;;5074548;28;19912;-63
2022/10/03 08:03:50;;;;;;;;;;;;;;;;;;5065900;28;19923;-63
2022/10/03 08:06:16;;;;;;;;;;;;;;;;;;5077956;28;20392;-63
2022/10/03 08:08:41;;;;;;;;;;;;;;;;;;5059955;28;19912;-62
2022/10/03 08:11:07;;;;;;;;;;;;;;;;;;5066928;28;19969;-64
2022/10/03 08:13:32;;;;;;;;;;;;;;;;;;5072584;28;19954;-64
2022/10/03 08:15:57;;;;;;;;;;;;;;;;;;5059526;28;19922;-63
2022/10/03 08:18:22;;;;;;;;;;;;;;;;;;5084331;28;19912;-63
2022/10/03 08:20:48;;;;;;;;;;;;;;;;;;5086553;28;19924;-62
2022/10/03 08:23:13;;;;;;;;;;;;;;;;;;5079564;28;19978;-63
2022/10/03 08:25:38;;;;;;;;;;;;;;;;;;5062267;28;20394;-63
2022/10/03 08:28:03;;;;;;;;;;;;;;;;;;5079021;28;19916;-63
2022/10/03 08:30:29;;;;;;;;;;;;;;;;;;5067569;28;19923;-64
2022/10/03 08:32:55;;;;;;;;;;;;;;;;;;5080406;28;19943;-63
2022/10/03 08:35:20;;;;;;;;;;;;;;;;;;5077250;28;19973;-66
2022/10/03 08:37:45;;;;;;;;;;;;;;;;;;5087499;28;19920;-67
2022/10/03 08:40:10;;;;;;;;;;;;;;;;;;5064322;28;19913;-67
2022/10/03 08:42:35;;;;;;;;;;;;;;;;;;5078405;28;20003;-67
2022/10/03 08:45:01;;;;;;;;;;;;;;;;;;5074594;28;19916;-67
2022/10/03 08:47:26;;;;;;;;;;;;;;;;;;5089286;28;19918;-66
2022/10/03 08:49:51;;;;;;;;;;;;;;;;;;5074371;28;20410;-66
2022/10/03 08:52:17;;;;;;;;;;;;;;;;;;5067760;28;19912;-68
2022/10/03 08:54:42;;;;;;;;;;;;;;;;;;5077527;28;19912;-67
2022/10/03 08:57:07;;;;;;;;;;;;;;;;;;5077451;28;19919;-67
2022/10/03 08:59:32;;;;;;;;;;;;;;;;;;5064666;28;19912;-66
2022/10/03 09:01:57;;;;;;;;;;;;;;;;;;5081697;28;20281;-69
2022/10/03 09:04:23;;;;;;;;;;;;;;;;;;5064981;28;20339;-65
2022/10/03 09:06:48;;;;;;;;;;;;;;;;;;5075785;28;19967;-63
2022/10/03 09:09:13;;;;;;;;;;;;;;;;;;5081979;28;19912;-66
2022/10/03 09:11:40;;;;;;;;;;;;;;;;;;5080065;28;19912;-66
2022/10/03 09:14:05;;;;;;;;;;;;;;;;;;5084556;28;20011;-65
2022/10/03 09:16:30;;;;;;;;;;;;;;;;;;5053877;28;20019;-69
2022/10/03 09:18:55;;;;;;;;;;;;;;;;;;5063561;28;19966;-66
2022/10/03 09:21:21;;;;;;;;;;;;;;;;;;5081290;28;19912;-67
2022/10/03 09:23:46;;;;;;;;;;;;;;;;;;5067110;28;19965;-67
2022/10/03 09:26:12;;;;;;;;;;;;;;;;;;5073384;28;20417;-66
2022/10/03 09:28:37;;;;;;;;;;;;;;;;;;5089784;28;20361;-65
2022/10/03 09:31:03;;;;;;;;;;;;;;;;;;5084637;28;19912;-64
2022/10/03 09:33:28;;;;;;;;;;;;;;;;;;5073883;28;20007;-68
2022/10/03 09:35:54;;;;;;;;;;;;;;;;;;5072378;28;19998;-68
2022/10/03 09:38:19;;;;;;;;;;;;;;;;;;5077893;28;20356;-69
2022/10/03 09:40:44;;;;;;;;;;;;;;;;;;5074410;28;19974;-68
2022/10/03 09:43:09;;;;;;;;;;;;;;;;;;5088693;28;19920;-68
2022/10/03 09:45:34;;;;;;;;;;;;;;;;;;5071424;28;19923;-68
2022/10/03 09:47:59;;;;;;;;;;;;;;;;;;5070712;28;19991;-66
2022/10/03 09:50:26;;;;;;;;;;;;;;;;;;5074668;28;20339;-67
2022/10/03 09:52:51;;;;;;;;;;;;;;;;;;5079028;28;20368;-68
2022/10/03 09:55:17;;;;;;;;;;;;;;;;;;5077752;28;19909;-69
2022/10/03 09:57:42;;;;;;;;;;;;;;;;;;5076969;28;19935;-68
2022/10/03 10:00:07;;;;;;;;;;;;;;;;;;5087651;28;19913;-69
2022/10/03 10:02:32;;;;;;;;;;;;;;;;;;5080641;28;19920;-65
2022/10/03 10:04:57;;;;;;;;;;;;;;;;;;5068963;28;19916;-69
2022/10/03 10:07:22;;;;;;;;;;;;;;;;;;5062503;28;19920;-68
2022/10/03 10:09:48;;;;;;;;;;;;;;;;;;5076008;28;20441;-66
2022/10/03 10:12:13;;;;;;;;;;;;;;;;;;5069091;28;20337;-68
2022/10/03 10:14:38;;;;;;;;;;;;;;;;;;5073809;28;20280;-67
2022/10/03 10:17:03;;;;;;;;;;;;;;;;;;5093516;28;20387;-66
2022/10/03 10:19:28;;;;;;;;;;;;;;;;;;5068985;28;19969;-67
2022/10/03 10:21:53;;;;;;;;;;;;;;;;;;5079421;28;19916;-66
2022/10/03 10:24:18;;;;;;;;;;;;;;;;;;5076924;28;19920;-67
2022/10/03 10:26:43;;;;;;;;;;;;;;;;;;5069550;28;20069;-67
2022/10/03 10:29:09;;;;;;;;;;;;;;;;;;5092622;28;19924;-67
2022/10/03 10:31:34;;;;;;;;;;;;;;;;;;5075136;28;19919;-67
2022/10/03 10:33:59;;;;;;;;;;;;;;;;;;5081397;28;20323;-66
2022/10/03 10:36:24;;;;;;;;;;;;;;;;;;5058814;28;19916;-66
2022/10/03 10:38:49;;;;;;;;;;;;;;;;;;5086378;28;19922;-64
2022/10/03 10:41:14;;;;;;;;;;;;;;;;;;5083803;28;19967;-68
2022/10/03 10:43:40;;;;;;;;;;;;;;;;;;5076122;28;19919;-66
2022/10/03 10:46:05;;;;;;;;;;;;;;;;;;5084411;28;19931;-66
2022/10/03 10:48:30;;;;;;;;;;;;;;;;;;5082065;28;20003;-66
2022/10/03 10:50:55;;;;;;;;;;;;;;;;;;5089725;28;19954;-68
2022/10/03 10:53:21;;;;;;;;;;;;;;;;;;5069050;28;19912;-67
2022/10/03 10:55:46;;;;;;;;;;;;;;;;;;5067572;28;20338;-66
2022/10/03 10:58:11;;;;;;;;;;;;;;;;;;5068778;28;19948;-68
2022/10/03 11:00:38;;;;;;;;;;;;;;;;;;5094394;28;19909;-66
2022/10/03 11:03:03;;;;;;;;;;;;;;;;;;5085674;28;20018;-66
2022/10/03 11:05:28;;;;;;;;;;;;;;;;;;5086965;28;20019;-66
2022/10/03 11:07:54;;;;;;;;;;;;;;;;;;5057866;28;19939;-66
2022/10/03 11:10:19;;;;;;;;;;;;;;;;;;5084067;28;19913;-66
2022/10/03 11:12:45;;;;;;;;;;;;;;;;;;5074702;28;19920;-67
2022/10/03 11:15:10;;;;;;;;;;;;;;;;;;5079212;28;19912;-66
2022/10/03 11:17:36;;;;;;;;;;;;;;;;;;5075238;28;19909;-66
2022/10/03 11:20:02;;;;;;;;;;;;;;;;;;5085311;28;19920;-67
2022/10/03 11:22:27;;;;;;;;;;;;;;;;;;5075430;28;19915;-67
2022/10/03 11:24:52;;;;;;;;;;;;;;;;;;5093646;28;20374;-66
2022/10/03 11:27:17;;;;;;;;;;;;;;;;;;5088609;28;19990;-68
2022/10/03 11:29:43;;;;;;;;;;;;;;;;;;5083778;28;19916;-66
2022/10/03 11:32:08;;;;;;;;;;;;;;;;;;5079450;28;19989;-67
2022/10/03 11:34:35;;;;;;;;;;;;;;;;;;5055270;28;20353;-66
2022/10/03 11:37:00;;;;;;;;;;;;;;;;;;5073827;28;20422;-66
2022/10/03 11:39:25;;;;;;;;;;;;;;;;;;5072907;28;19908;-68
2022/10/03 11:41:50;;;;;;;;;;;;;;;;;;5072708;28;19913;-67
2022/10/03 11:44:16;;;;;;;;;;;;;;;;;;5058238;28;20020;-67
2022/10/03 11:46:43;;;;;;;;;;;;;;;;;;5082862;28;19912;-66
2022/10/03 11:49:08;;;;;;;;;;;;;;;;;;5084528;28;19912;-67
2022/10/03 11:51:34;;;;;;;;;;;;;;;;;;5078666;28;20273;-66
2022/10/03 11:53:59;;;;;;;;;;;;;;;;;;5074281;28;19918;-68
2022/10/03 11:56:24;;;;;;;;;;;;;;;;;;5092761;28;20346;-66
2022/10/03 11:58:50;;;;;;;;;;;;;;;;;;5092896;28;20422;-66
2022/10/03 12:01:15;;;;;;;;;;;;;;;;;;5082217;28;19912;-66
2022/10/03 12:03:42;;;;;;;;;;;;;;;;;;5078632;28;19920;-67
2022/10/03 12:08:54;;;;;;;;;;;;;;;;;;5086027;28;19919;-67
2022/10/03 12:11:19;;;;;;;;;;;;;;;;;;5072445;28;19908;-67
2022/10/03 12:13:44;;;;;;;;;;;;;;;;;;5069416;28;20372;-67
2022/10/03 12:16:09;;;;;;;;;;;;;;;;;;5078976;28;19912;-67
2022/10/03 12:18:34;;;;;;;;;;;;;;;;;;5079554;28;19916;-67
2022/10/03 12:20:59;;;;;;;;;;;;;;;;;;5048415;28;19927;-65
2022/10/03 12:23:24;;;;;;;;;;;;;;;;;;5047574;28;20004;-66
2022/10/03 12:25:50;;;;;;;;;;;;;;;;;;5042270;28;20335;-67
2022/10/03 12:28:16;;;;;;;;;;;;;;;;;;5056892;28;19916;-67
2022/10/03 12:30:41;;;;;;;;;;;;;;;;;;5063537;28;20377;-67
2022/10/03 12:33:07;;;;;;;;;;;;;;;;;;5062435;28;19917;-67
2022/10/03 12:35:32;;;;;;;;;;;;;;;;;;5068149;28;19908;-67
2022/10/03 12:37:57;;;;;;;;;;;;;;;;;;5037208;28;19920;-67
2022/10/03 12:40:23;;;;;;;;;;;;;;;;;;5061999;28;19908;-67
2022/10/03 12:42:48;;;;;;;;;;;;;;;;;;5056159;28;19916;-68
2022/10/03 12:45:13;;;;;;;;;;;;;;;;;;5035934;28;19923;-67
2022/10/03 12:47:38;;;;;;;;;;;;;;;;;;5051714;28;19908;-68
2022/10/03 12:50:03;;;;;;;;;;;;;;;;;;5064217;28;19923;-66
2022/10/03 12:52:28;;;;;;;;;;;;;;;;;;5059638;28;19909;-67
2022/10/03 12:54:53;;;;;;;;;;;;;;;;;;5040186;28;19912;-67
2022/10/03 12:57:19;;;;;;;;;;;;;;;;;;5053844;28;19908;-67
2022/10/03 12:59:44;;;;;;;;;;;;;;;;;;5070632;28;19915;-66
2022/10/03 13:02:11;;;;;;;;;;;;;;;;;;5054287;28;20000;-67
2022/10/03 13:04:36;;;;;;;;;;;;;;;;;;5070861;28;19913;-67
2022/10/03 13:07:01;;;;;;;;;;;;;;;;;;5067202;28;19920;-67
2022/10/03 13:09:26;;;;;;;;;;;;;;;;;;5071972;28;19919;-67
2022/10/03 13:11:51;;;;;;;;;;;;;;;;;;5074469;28;19919;-67
2022/10/03 13:14:17;;;;;;;;;;;;;;;;;;5064533;28;19920;-67
2022/10/03 13:16:42;;;;;;;;;;;;;;;;;;5051790;28;19916;-65
2022/10/03 13:19:08;;;;;;;;;;;;;;;;;;5064512;28;19920;-68
2022/10/03 13:21:33;;;;;;;;;;;;;;;;;;5067234;28;20054;-67
2022/10/03 13:23:59;;;;;;;;;;;;;;;;;;5070604;28;19916;-67
2022/10/03 13:26:24;;;;;;;;;;;;;;;;;;5066856;28;20283;-66
2022/10/03 13:28:49;;;;;;;;;;;;;;;;;;5075251;28;20276;-68
2022/10/03 13:31:14;;;;;;;;;;;;;;;;;;5057815;28;19995;-67
2022/10/03 13:33:39;;;;;;;;;;;;;;;;;;5066157;28;19971;-65
2022/10/03 13:36:08;;;;;;;;;;;;;;;;;;5062960;28;19917;-67
2022/10/03 13:38:35;;;;;;;;;;;;;;;;;;5065904;28;19957;-68
2022/10/03 13:41:01;;;;;;;;;;;;;;;;;;5054221;28;19984;-67
2022/10/03 13:43:26;;;;;;;;;;;;;;;;;;5055555;28;20007;-67
2022/10/03 13:45:55;;;;;;;;;;;;;;;;;;5055523;28;19924;-67
2022/10/03 13:48:21;;;;;;;;;;;;;;;;;;5054844;28;20368;-67
2022/10/03 13:50:46;;;;;;;;;;;;;;;;;;5058455;28;19965;-67
2022/10/03 13:53:11;;;;;;;;;;;;;;;;;;5051888;28;19919;-67
2022/10/03 13:55:36;;;;;;;;;;;;;;;;;;5074215;28;19955;-68
2022/10/03 13:58:02;;;;;;;;;;;;;;;;;;5068060;28;19913;-67
2022/10/03 14:00:27;;;;;;;;;;;;;;;;;;5055419;28;19916;-68
2022/10/03 14:02:52;;;;;;;;;;;;;;;;;;5047817;28;19909;-67
2022/10/03 14:05:17;;;;;;;;;;;;;;;;;;5054827;28;19963;-68
2022/10/03 14:07:43;;;;;;;;;;;;;;;;;;5075229;28;19916;-67
2022/10/03 14:10:08;;;;;;;;;;;;;;;;;;5053104;28;19942;-67
2022/10/03 14:12:33;;;;;;;;;;;;;;;;;;5071273;28;20085;-68
2022/10/03 14:14:58;;;;;;;;;;;;;;;;;;5060298;28;19913;-68
2022/10/03 14:17:24;;;;;;;;;;;;;;;;;;5037548;28;20068;-68
2022/10/03 14:19:49;;;;;;;;;;;;;;;;;;5071624;28;19920;-67
2022/10/03 14:22:15;;;;;;;;;;;;;;;;;;5076757;28;19958;-65
2022/10/03 14:24:41;;;;;;;;;;;;;;;;;;5070969;28;20356;-66
2022/10/03 14:27:06;;;;;;;;;;;;;;;;;;5072568;28;19915;-68
2022/10/03 14:29:32;;;;;;;;;;;;;;;;;;5080515;28;19912;-68
2022/10/03 14:31:57;;;;;;;;;;;;;;;;;;5061959;28;19913;-67
2022/10/03 14:34:22;;;;;;;;;;;;;;;;;;5086995;28;19918;-67
2022/10/03 14:36:47;;;;;;;;;;;;;;;;;;5090934;28;19920;-67
2022/10/03 14:39:12;;;;;;;;;;;;;;;;;;5082094;28;20384;-65
2022/10/03 14:41:37;;;;;;;;;;;;;;;;;;5086275;28;19972;-68
2022/10/03 14:44:03;;;;;;;;;;;;;;;;;;5074274;28;19944;-67
2022/10/03 14:46:28;;;;;;;;;;;;;;;;;;5078248;28;20011;-69
2022/10/03 14:48:53;;;;;;;;;;;;;;;;;;5073475;28;19920;-67
2022/10/03 14:51:18;;;;;;;;;;;;;;;;;;5074115;28;19912;-67
2022/10/03 14:53:44;;;;;;;;;;;;;;;;;;5082603;28;19943;-68
2022/10/03 14:56:10;;;;;;;;;;;;;;;;;;5090043;28;19912;-65
2022/10/03 14:58:35;;;;;;;;;;;;;;;;;;5083431;28;19935;-67
2022/10/03 15:01:00;;;;;;;;;;;;;;;;;;5076770;28;19909;-67
2022/10/03 15:03:25;;;;;;;;;;;;;;;;;;5075632;28;19950;-68
2022/10/03 15:05:51;;;;;;;;;;;;;;;;;;5067754;28;20003;-67
2022/10/03 15:08:16;;;;;;;;;;;;;;;;;;5080170;28;19962;-68
2022/10/03 15:10:41;;;;;;;;;;;;;;;;;;5073465;28;19920;-67
2022/10/03 15:13:08;;;;;;;;;;;;;;;;;;5089079;28;19908;-67
2022/10/03 15:15:34;;;;;;;;;;;;;;;;;;5078439;28;19951;-68
2022/10/03 15:18:01;;;;;;;;;;;;;;;;;;5082650;28;20003;-67
2022/10/03 15:20:29;;;;;;;;;;;;;;;;;;5087249;28;19920;-66
2022/10/03 15:22:54;;;;;;;;;;;;;;;;;;5093616;28;20380;-66
2022/10/03 15:25:20;;;;;;;;;;;;;;;;;;5080485;28;19971;-68
2022/10/03 15:27:45;;;;;;;;;;;;;;;;;;5063812;28;19908;-67
2022/10/03 15:30:10;;;;;;;;;;;;;;;;;;5074152;28;20290;-67
2022/10/03 15:32:36;;;;;;;;;;;;;;;;;;5087997;28;19912;-67
2022/10/03 15:35:01;;;;;;;;;;;;;;;;;;5067052;28;19923;-67
2022/10/03 15:37:27;;;;;;;;;;;;;;;;;;5085701;28;19965;-67
2022/10/03 15:39:53;;;;;;;;;;;;;;;;;;5075487;28;19956;-67
2022/10/03 15:42:18;;;;;;;;;;;;;;;;;;5057352;28;20285;-68
2022/10/03 15:44:49;;;;;;;;;;;;;;;;;;5074154;28;20383;-68
2022/10/03 15:47:14;;;;;;;;;;;;;;;;;;5093323;28;19912;-67
2022/10/03 15:49:39;;;;;;;;;;;;;;;;;;5086180;28;19935;-68
2022/10/03 15:52:04;;;;;;;;;;;;;;;;;;5086180;28;19920;-67
2022/10/03 15:54:31;;;;;;;;;;;;;;;;;;5087958;28;20424;-66
2022/10/03 15:56:57;;;;;;;;;;;;;;;;;;5075763;28;19908;-68
2022/10/03 15:59:22;;;;;;;;;;;;;;;;;;5054889;28;20281;-68
2022/10/03 16:01:50;;;;;;;;;;;;;;;;;;5057472;28;19991;-68
2022/10/03 16:04:15;;;;;;;;;;;;;;;;;;5074377;28;19973;-68
2022/10/03 16:06:41;;;;;;;;;;;;;;;;;;5079930;28;20363;-67
2022/10/03 16:09:06;;;;;;;;;;;;;;;;;;5075979;28;19912;-67
2022/10/03 16:11:32;;;;;;;;;;;;;;;;;;5059700;28;20007;-67
2022/10/03 16:13:58;;;;;;;;;;;;;;;;;;5065336;28;19999;-67
2022/10/03 16:16:23;;;;;;;;;;;;;;;;;;5077579;28;19916;-68
2022/10/03 16:18:49;;;;;;;;;;;;;;;;;;5071323;28;20347;-68
2022/10/03 16:21:14;;;;;;;;;;;;;;;;;;5076324;28;20328;-67
2022/10/03 16:23:41;;;;;;;;;;;;;;;;;;5073830;28;19912;-69
2022/10/03 16:26:06;;;;;;;;;;;;;;;;;;5064363;28;19917;-68
2022/10/03 16:28:31;;;;;;;;;;;;;;;;;;5074963;28;19916;-69
2022/10/03 16:30:57;;;;;;;;;;;;;;;;;;5066231;28;19909;-67
2022/10/03 16:33:22;;;;;;;;;;;;;;;;;;5077744;28;20362;-67
2022/10/03 16:35:47;;;;;;;;;;;;;;;;;;5076425;28;19935;-67
2022/10/03 16:38:12;;;;;;;;;;;;;;;;;;5064580;28;20403;-66
2022/10/03 16:40:37;;;;;;;;;;;;;;;;;;5061933;28;19983;-67
2022/10/03 16:43:08;;;;;;;;;;;;;;;;;;5055431;28;19922;-66